Flight Track Log - Related Links

Times and Time Zones

All times are in EDT time to prevent confusion due to time zone crossing. See the SWA542 flight status page for this flight to view local times or setup timezone preferences in your user account.

Time Position Orientation Groundspeed Altitude Reporting Facility
EDT Latitude Longitude Course Direction KTS MPH feet Rate Location/Type
Sat 10:16:19 PM 36.0747 -115.1819 260° West 189 217 3,600  Level Los Angeles Center
Sat 10:17:26 PM 36.0644 -115.2544 260° West 229 264 5,200 1,774 Climbing Los Angeles Center
Sat 10:18:14 PM 36.0089 -115.2833 203° Southwest 258 297 7,000 1,770 Climbing Los Angeles Center
Sat 10:18:27 PM 35.9928 -115.2914 202° Southwest 276 318 7,000 197 Level Los Angeles Center
Sat 10:19:15 PM 35.9536 -115.3192 210° Southwest 271 312 7,200 1,101 Climbing Los Angeles Center
Sat 10:20:16 PM 35.8881 -115.4089 228° Southwest 286 329 9,000 1,854 Climbing Los Angeles Center
Sat 10:21:18 PM 35.8886 -115.5111 270° West 294 338 11,000 976 Climbing Los Angeles Center
Sat 10:22:19 PM 35.8911 -115.6347 271° West 353 406 11,000 934 Level Los Angeles Center
Sat 10:23:20 PM 35.8928 -115.7617 271° West 369 425 12,900 2,508 Climbing Los Angeles Center
Sat 10:24:21 PM 35.8953 -115.9025 271° West 383 441 16,100 2,852 Climbing Los Angeles Center
Sat 10:25:22 PM 35.9408 -116.0217 295° West 401 461 18,700 3,098 Climbing Los Angeles Center
Sat 10:26:23 PM 36.0231 -116.1161 317° Northwest 405 466 22,400 2,311 Climbing Los Angeles Center
Sat 10:27:24 PM 36.1097 -116.2150 317° Northwest 412 474 23,400 1,279 Climbing Los Angeles Center
Sat 10:28:25 PM 36.1939 -116.3117 317° Northwest 442 509 25,000 1,610 Climbing Los Angeles Center
Sat 10:29:27 PM 36.2900 -116.4236 317° Northwest 467 537 26,700 1,951 Climbing Los Angeles Center
Sat 10:30:28 PM 36.3881 -116.5364 317° Northwest 480 552 29,000 2,016 Climbing Los Angeles Center
Sat 10:31:29 PM 36.4839 -116.6497 316° Northwest 478 550 30,800 1,967 Climbing Los Angeles Center
Sat 10:32:30 PM 36.5953 -116.7714 319° Northwest 482 555 33,000 1,574 Climbing Los Angeles Center
Sat 10:33:31 PM 36.7028 -116.8903 318° Northwest 477 549 34,000 492 Climbing Los Angeles Center
Sat 10:34:32 PM 36.7956 -117.0103 314° West 481 554 34,000  Level Los Angeles Center
Sat 10:35:34 PM 36.8803 -117.1231 313° West 482 555 34,000  Level Los Angeles Center
Sat 10:36:35 PM 36.9728 -117.2422 314° West 478 550 34,000  Level Los Angeles Center
Sat 10:37:36 PM 37.0650 -117.3636 314° West 479 551 34,000  Level Los Angeles Center
Sat 10:38:37 PM 37.1744 -117.5075 314° West 474 545 34,000  Level Los Angeles Center
Sat 10:39:12 PM 37.2100 -117.5575 312° West 474 545 34,000  Level Oakland Center
Sat 10:40:13 PM 37.3011 -117.6761 314° West 471 542 34,000  Level Oakland Center
Sat 10:41:14 PM 37.3919 -117.7983 313° West 473 544 34,000  Level Oakland Center
Sat 10:42:14 PM 37.5011 -117.9422 314° West 474 545 34,000  Level Oakland Center
Sat 10:43:15 PM 37.5922 -118.0639 313° West 475 547 34,000  Level Oakland Center
Sat 10:44:16 PM 37.6831 -118.1883 313° West 479 551 34,000  Level Oakland Center
Sat 10:45:17 PM 37.7753 -118.3117 313° West 480 552 34,000  Level Oakland Center
Sat 10:46:18 PM 37.8683 -118.4353 314° West 482 555 34,000  Level Oakland Center
Sat 10:47:19 PM 37.9594 -118.5594 313° West 480 552 34,000  Level Oakland Center
Sat 10:48:19 PM 38.0497 -118.6836 313° West 479 551 34,000  Level Oakland Center
Sat 10:49:20 PM 38.1233 -118.8211 304° West 476 548 34,000  Level Oakland Center
Sat 10:50:21 PM 38.1786 -118.9603 297° West 475 547 34,000  Level Oakland Center
Sat 10:51:22 PM 38.2397 -119.1058 298° West 468 539 34,000  Level Oakland Center
Sat 10:52:23 PM 38.3006 -119.2558 297° West 474 545 34,000 -50 Level Oakland Center
Sat 10:53:23 PM 38.3611 -119.4050 297° West 473 544 33,900 -545 Descending Oakland Center
Sat 10:54:24 PM 38.4217 -119.5550 297° West 474 545 32,900 -934 Descending Oakland Center
Sat 10:55:25 PM 38.4803 -119.7006 297° West 465 535 32,000 -984 Descending Oakland Center
Sat 10:56:26 PM 38.5381 -119.8483 297° West 455 524 30,900 -1,623 Descending Oakland Center
Sat 10:57:27 PM 38.5972 -119.9997 297° West 458 527 28,700 -2,479 Descending Oakland Center
Sat 10:58:27 PM 38.6525 -120.1378 297° West 456 525 25,900 -3,074 Descending Oakland Center
Sat 10:59:28 PM 38.7214 -120.3089 297° West 452 520 22,500 -3,000 Descending Oakland Center
Sat 11:00:29 PM 38.7756 -120.4478 297° West 438 504 19,800 -2,656 Descending Oakland Center
Sat 11:01:30 PM 38.8275 -120.5781 297° West 419 482 17,100 -3,049 Descending Oakland Center
Sat 11:02:31 PM 38.8431 -120.7114 279° West 394 453 13,600 -3,174 Descending Oakland Center
Sat 11:03:31 PM 38.8367 -120.8428 266° West 378 435 10,700 -1,983 Descending Oakland Center
Sat 11:04:32 PM 38.8308 -120.9542 266° West 333 383 9,600 -1,525 Descending Oakland Center
Sat 11:05:33 PM 38.8258 -121.0544 266° West 294 338 7,600 -1,279 Descending Oakland Center
Sat 11:06:34 PM 38.8206 -121.1542 266° West 284 327 7,000 -787 Descending Oakland Center
Sat 11:07:35 PM 38.8156 -121.2456 266° West 264 304 6,000 -1,033 Descending Oakland Center
Sat 11:08:36 PM 38.8111 -121.3336 266° West 253 291 4,900 -1,190 Descending Oakland Center
Sat 11:09:36 PM 38.8069 -121.4192 266° West 245 282 3,600 -992 Descending Oakland Center
Sat 11:10:37 PM 38.8092 -121.4956 272° West 218 251 2,900 -885 Descending Oakland Center
Sat 11:11:38 PM 38.8086 -121.5706 269° West 188 216 1,800 -787 Descending Oakland Center
Sat 11:12:39 PM 38.7772 -121.6000 216° Southwest 163 188 1,300 -590 Descending Oakland Center
Sat 11:13:40 PM 38.7392 -121.6006 181° South 147 169 600 -545 Descending Oakland Center
Sat 11:14:40 PM 38.7058 -121.6014 181° South 142 163 200 -400 Descending Oakland Center
Sat 11:16:00 PM 38.6954 -121.5908 218° Southwest  Level Estimated
Sat 11:23:00 PM 38.6954 -121.5908 218° Southwest  Level Estimated

Login

Don't have an account? Register now (free) for customized features, flight alerts, and more!